createdAt,value
2022-09-01T00:00:28.510Z,3.80
2022-09-01T00:02:57.054Z,4.20
2022-09-01T00:05:32.263Z,4.00
2022-09-01T00:08:00.691Z,4.50
2022-09-01T00:10:37.115Z,4.97
2022-09-01T00:13:07.183Z,4.80
2022-09-01T00:15:43.243Z,4.67
2022-09-01T00:18:14.348Z,4.83
2022-09-01T00:20:51.862Z,4.60
2022-09-01T00:23:26.511Z,4.70
2022-09-01T00:26:02.270Z,5.10
2022-09-01T00:28:30.566Z,5.00
2022-09-01T00:31:05.328Z,5.50
2022-09-01T00:33:34.035Z,4.80
2022-09-01T00:36:09.320Z,5.17
2022-09-01T00:38:40.701Z,5.00
2022-09-01T00:41:17.161Z,5.20
2022-09-01T00:43:48.491Z,5.00
2022-09-01T00:46:28.928Z,5.50
2022-09-01T00:49:00.919Z,5.70
2022-09-01T00:51:37.563Z,5.27
2022-09-01T00:54:08.961Z,5.70
2022-09-01T00:56:48.227Z,5.93
2022-09-01T00:59:27.032Z,5.47
2022-09-01T01:02:02.226Z,5.67
2022-09-01T01:04:31.430Z,6.00
2022-09-01T01:07:21.237Z,5.80
2022-09-01T01:09:56.472Z,5.67
2022-09-01T01:12:37.232Z,5.97
2022-09-01T01:15:13.226Z,6.10
2022-09-01T01:17:42.138Z,6.93
2022-09-01T01:20:43.567Z,6.17
2022-09-01T01:23:27.204Z,6.70
2022-09-01T01:26:07.343Z,6.70
2022-09-01T01:28:38.362Z,6.87
2022-09-01T01:31:20.373Z,7.30
2022-09-01T01:33:50.780Z,7.33
2022-09-01T01:36:39.566Z,8.17
2022-09-01T01:39:12.005Z,8.40
2022-09-01T01:41:51.266Z,8.60
2022-09-01T01:44:22.919Z,7.97
2022-09-01T01:47:01.592Z,8.20
2022-09-01T01:49:31.181Z,8.40
2022-09-01T01:52:06.281Z,8.07
2022-09-01T01:54:37.653Z,8.43
2022-09-01T01:57:15.286Z,8.50
2022-09-01T01:59:43.570Z,8.90
2022-09-01T02:02:19.410Z,8.90
2022-09-01T02:04:47.710Z,8.47
2022-09-01T02:07:23.233Z,8.53
2022-09-01T02:09:51.953Z,8.73
2022-09-01T02:12:32.330Z,9.37
2022-09-01T02:15:01.177Z,8.97
2022-09-01T02:17:36.298Z,8.63
2022-09-01T02:20:25.397Z,9.00
2022-09-01T02:23:02.611Z,8.77
2022-09-01T02:25:31.966Z,8.83
2022-09-01T02:28:09.319Z,8.70
2022-09-01T02:30:39.029Z,8.00
2022-09-01T02:33:15.428Z,7.73
2022-09-01T02:35:43.852Z,7.47
2022-09-01T02:38:20.784Z,8.47
2022-09-01T02:40:49.254Z,8.07
2022-09-01T02:43:26.252Z,7.90
2022-09-01T02:45:56.899Z,7.63
2022-09-01T02:48:35.261Z,7.67
2022-09-01T02:51:04.309Z,7.60
2022-09-01T02:53:41.339Z,7.00
2022-09-01T02:56:14.676Z,7.07
2022-09-01T02:58:53.279Z,6.73
2022-09-01T03:01:25.683Z,6.97
2022-09-01T03:04:02.459Z,6.83
2022-09-01T03:06:34.822Z,6.83
2022-09-01T03:09:12.446Z,6.53
2022-09-01T03:11:43.613Z,6.20
2022-09-01T03:14:21.284Z,6.90
2022-09-01T03:16:49.925Z,6.10
2022-09-01T03:19:25.341Z,6.47
2022-09-01T03:22:00.463Z,6.80
2022-09-01T03:24:38.489Z,6.70
2022-09-01T03:27:07.652Z,6.47
2022-09-01T03:29:44.375Z,5.93
2022-09-01T03:32:12.809Z,6.63
2022-09-01T03:34:48.699Z,5.30
2022-09-01T03:37:17.678Z,5.60
2022-09-01T03:39:53.491Z,5.60
2022-09-01T03:42:28.138Z,5.10
2022-09-01T03:45:04.347Z,5.70
2022-09-01T03:47:33.687Z,5.33
2022-09-01T03:50:08.326Z,5.80
2022-09-01T03:52:37.243Z,5.57
2022-09-01T03:55:12.481Z,5.63
2022-09-01T03:57:42.843Z,4.97
2022-09-01T04:00:27.491Z,5.60
2022-09-01T04:03:01.465Z,5.13
2022-09-01T04:05:37.500Z,5.37
2022-09-01T04:08:08.085Z,4.47
2022-09-01T04:10:44.441Z,4.37
2022-09-01T04:13:13.708Z,4.57
2022-09-01T04:15:52.806Z,3.90
2022-09-01T04:18:20.719Z,3.90
2022-09-01T04:20:57.495Z,3.80
2022-09-01T04:23:30.215Z,3.73
2022-09-01T04:26:15.779Z,3.47
2022-09-01T04:28:46.036Z,3.70
2022-09-01T04:31:25.806Z,3.57
2022-09-01T04:33:54.470Z,3.20
2022-09-01T04:36:32.537Z,3.00
2022-09-01T04:39:02.950Z,2.70
2022-09-01T04:41:40.534Z,3.00
2022-09-01T04:44:09.878Z,2.70
2022-09-01T04:46:48.503Z,2.57
2022-09-01T04:49:20.038Z,2.57
2022-09-01T04:51:56.807Z,2.63
2022-09-01T04:54:25.460Z,2.73
2022-09-01T04:57:01.814Z,2.90
2022-09-01T04:59:32.672Z,3.00
2022-09-01T05:02:09.751Z,2.87
2022-09-01T05:04:44.987Z,2.70
2022-09-01T05:07:20.439Z,2.77
2022-09-01T05:09:49.302Z,2.63
2022-09-01T05:12:27.450Z,2.80
2022-09-01T05:14:56.210Z,2.23
2022-09-01T05:17:32.475Z,2.37
2022-09-01T05:20:01.369Z,2.40
2022-09-01T05:22:42.482Z,2.53
2022-09-01T05:25:13.605Z,3.07
2022-09-01T05:27:56.863Z,2.77
2022-09-01T05:30:28.701Z,2.50
2022-09-01T05:33:04.592Z,2.53
2022-09-01T05:35:35.038Z,2.27
2022-09-01T05:38:10.780Z,2.40
2022-09-01T05:40:41.116Z,1.93
2022-09-01T05:43:19.602Z,2.37
2022-09-01T05:46:05.659Z,2.30
2022-09-01T05:48:46.429Z,2.47
2022-09-01T05:51:40.392Z,2.80
2022-09-01T05:54:15.075Z,2.43
2022-09-01T05:56:45.029Z,2.23
2022-09-01T05:59:25.182Z,2.80
2022-09-01T06:01:54.776Z,2.50
2022-09-01T06:07:16.295Z,2.40
2022-09-01T06:10:00.528Z,2.27
2022-09-01T06:12:29.054Z,2.33
2022-09-01T06:15:04.631Z,2.20
2022-09-01T06:17:36.032Z,2.20
2022-09-01T06:20:17.768Z,2.00
2022-09-01T06:22:47.752Z,2.37
2022-09-01T06:25:25.629Z,2.40
2022-09-01T06:27:54.605Z,2.17
2022-09-01T06:30:31.518Z,2.27
2022-09-01T06:33:02.639Z,2.00
2022-09-01T06:35:37.658Z,2.30
2022-09-01T06:38:07.955Z,2.60
2022-09-01T06:40:48.611Z,2.30
2022-09-01T06:43:20.647Z,2.43
2022-09-01T06:45:56.668Z,2.77
2022-09-01T06:48:25.076Z,2.40
2022-09-01T06:51:17.309Z,2.60
2022-09-01T06:53:50.223Z,2.50
2022-09-01T06:56:31.999Z,2.60
2022-09-01T06:59:12.895Z,2.50
2022-09-01T07:01:43.012Z,2.60
2022-09-01T07:04:13.434Z,2.50
2022-09-01T07:09:47.802Z,2.50
2022-09-01T07:12:26.833Z,2.40
2022-09-01T07:17:57.587Z,2.47
2022-09-01T07:20:29.562Z,2.57
2022-09-01T07:23:08.078Z,2.03
2022-09-01T07:26:02.388Z,2.20
2022-09-01T07:28:39.572Z,2.57
2022-09-01T07:39:55.512Z,2.30
2022-09-01T07:42:56.885Z,2.30
2022-09-01T07:45:27.347Z,2.10
2022-09-01T07:48:00.157Z,2.27
2022-09-01T07:51:33.974Z,2.40
2022-09-01T07:53:28.036Z,2.37
2022-09-01T07:56:04.718Z,2.60
2022-09-01T07:58:33.693Z,2.40
2022-09-01T08:01:13.933Z,2.17
2022-09-01T08:03:42.662Z,2.00
2022-09-01T08:06:28.012Z,2.50
2022-09-01T08:09:02.522Z,1.93
2022-09-01T08:14:27.066Z,1.90
2022-09-01T08:23:51.047Z,2.50
2022-09-01T08:26:24.358Z,2.00
2022-09-01T08:29:13.631Z,2.00
2022-09-01T08:31:42.377Z,2.40
2022-09-01T08:34:23.882Z,1.80
2022-09-01T08:36:52.322Z,1.70
2022-09-01T08:39:42.757Z,1.70
2022-09-01T08:42:19.352Z,1.73
2022-09-01T08:45:02.662Z,1.60
2022-09-01T08:47:49.236Z,1.70
2022-09-01T08:50:27.782Z,1.70
2022-09-01T08:53:09.475Z,1.70
2022-09-01T08:55:49.533Z,1.80
2022-09-01T08:58:19.057Z,2.00
2022-09-01T09:00:59.596Z,1.83
2022-09-01T09:03:41.654Z,1.60
2022-09-01T09:06:24.621Z,1.70
2022-09-01T09:09:03.652Z,1.50
2022-09-01T09:12:13.625Z,1.63
2022-09-01T09:15:01.731Z,1.60
2022-09-01T09:17:41.627Z,1.50
2022-09-01T09:20:11.034Z,1.43
2022-09-01T09:22:59.309Z,1.73
2022-09-01T09:25:29.719Z,1.57
2022-09-01T09:28:04.638Z,1.60
2022-09-01T09:30:33.145Z,1.30
2022-09-01T09:36:17.937Z,1.30
2022-09-01T09:38:53.628Z,1.40
2022-09-01T09:41:27.188Z,1.20
2022-09-01T09:44:06.662Z,1.70
2022-09-01T09:46:39.708Z,1.60
2022-09-01T09:49:21.553Z,1.50
2022-09-01T09:52:16.819Z,1.73
2022-09-01T09:55:10.701Z,2.20
2022-09-01T09:57:41.550Z,2.07
2022-09-01T10:00:26.675Z,1.53
2022-09-01T10:02:58.391Z,1.40
2022-09-01T10:05:43.653Z,1.40
2022-09-01T10:08:28.445Z,1.60
2022-09-01T10:11:06.695Z,1.80
2022-09-01T10:13:43.719Z,1.40
2022-09-01T10:16:27.901Z,1.50
2022-09-01T10:19:00.651Z,1.40
2022-09-01T10:21:41.716Z,1.40
2022-09-01T10:24:22.352Z,1.60
2022-09-01T10:27:11.304Z,1.50
2022-09-01T10:30:12.123Z,1.50
2022-09-01T10:32:50.710Z,1.20
2022-09-01T10:35:30.714Z,1.27
2022-09-01T10:38:00.606Z,1.20
2022-09-01T10:40:49.129Z,1.30
2022-09-01T10:43:35.977Z,1.67
2022-09-01T10:46:52.442Z,1.30
2022-09-01T10:49:37.494Z,1.10
2022-09-01T10:52:14.127Z,1.20
2022-09-01T10:54:59.514Z,1.30
2022-09-01T10:57:46.686Z,1.20
2022-09-01T11:01:25.338Z,1.13
2022-09-01T11:04:03.886Z,1.30
2022-09-01T11:07:13.547Z,1.40
2022-09-01T11:09:58.868Z,1.30
2022-09-01T11:13:26.906Z,1.30
2022-09-01T11:16:03.739Z,1.20
2022-09-01T11:18:32.608Z,1.58
2022-09-01T11:21:22.919Z,1.43
2022-09-01T11:23:57.830Z,1.70
2022-09-01T11:26:48.875Z,1.40
2022-09-01T11:29:56.814Z,1.17
2022-09-01T11:32:35.642Z,1.20
2022-09-01T11:35:14.907Z,1.40
2022-09-01T11:37:44.176Z,1.40
2022-09-01T11:40:20.983Z,1.35
2022-09-01T11:42:52.246Z,1.48
2022-09-01T11:45:35.043Z,1.40
2022-09-01T11:48:11.231Z,1.55
2022-09-01T11:50:48.827Z,1.02
2022-09-01T11:53:23.583Z,1.20
2022-09-01T11:56:00.929Z,1.30
2022-09-01T11:58:39.573Z,1.40
2022-09-01T12:01:24.144Z,1.30
2022-09-01T12:03:54.791Z,1.38
2022-09-01T12:06:33.001Z,1.20
2022-09-01T12:09:20.830Z,1.30
2022-09-01T12:11:55.952Z,1.35
2022-09-01T12:14:24.286Z,1.40
2022-09-01T12:17:07.235Z,1.20
2022-09-01T12:19:38.758Z,1.50
2022-09-01T12:22:22.918Z,1.30
2022-09-01T12:24:53.630Z,1.42
2022-09-01T12:27:30.184Z,1.33
2022-09-01T12:29:59.047Z,1.52
2022-09-01T12:32:33.939Z,1.10
2022-09-01T12:35:11.341Z,1.73
2022-09-01T12:37:47.114Z,1.33
2022-09-01T12:40:27.469Z,1.40
2022-09-01T12:43:01.956Z,1.55
2022-09-01T12:45:42.235Z,1.13
2022-09-01T12:48:33.450Z,1.10
2022-09-01T12:51:05.229Z,1.25
2022-09-01T12:53:42.558Z,1.23
2022-09-01T12:56:25.207Z,1.17
2022-09-01T12:59:15.768Z,1.23
2022-09-01T13:01:45.758Z,1.10
2022-09-01T13:04:34.920Z,1.15
2022-09-01T13:07:07.691Z,1.20
2022-09-01T13:09:50.201Z,1.23
2022-09-01T13:12:28.158Z,1.10
2022-09-01T13:15:03.279Z,1.13
2022-09-01T13:17:31.611Z,1.10
2022-09-01T13:20:07.008Z,1.17
2022-09-01T13:22:39.776Z,1.23
2022-09-01T13:25:15.938Z,1.00
2022-09-01T13:27:44.864Z,1.23
2022-09-01T13:30:21.941Z,1.42
2022-09-01T13:35:47.293Z,1.23
2022-09-01T13:38:18.370Z,1.10
2022-09-01T13:40:53.990Z,1.20
2022-09-01T13:43:24.154Z,1.10
2022-09-01T13:45:59.122Z,1.10
2022-09-01T13:49:02.439Z,1.23
2022-09-01T13:51:33.948Z,1.20
2022-09-01T13:54:03.743Z,1.30
2022-09-01T13:56:41.949Z,1.10
2022-09-01T13:59:10.220Z,0.98
2022-09-01T14:01:48.082Z,1.60
2022-09-01T14:04:16.355Z,1.13
2022-09-01T14:06:53.442Z,1.42
2022-09-01T14:09:43.047Z,2.28
2022-09-01T14:12:18.055Z,1.15
2022-09-01T14:17:40.966Z,1.27
2022-09-01T14:20:14.396Z,1.25
2022-09-01T14:22:48.999Z,1.13
2022-09-01T14:25:20.535Z,1.05
2022-09-01T14:28:00.118Z,1.33
2022-09-01T14:30:31.629Z,1.00
2022-09-01T14:33:07.005Z,1.20
2022-09-01T14:35:35.287Z,1.30
2022-09-01T14:38:12.213Z,1.10
2022-09-01T14:40:43.235Z,1.15
2022-09-01T14:43:23.341Z,1.20
2022-09-01T14:45:52.265Z,1.05
2022-09-01T14:48:28.308Z,0.95
2022-09-01T14:50:56.681Z,1.00
2022-09-01T14:53:32.986Z,1.20
2022-09-01T14:56:05.120Z,1.10
2022-09-01T14:58:39.999Z,1.15
2022-09-01T15:01:32.793Z,1.10
2022-09-01T15:04:08.054Z,1.25
2022-09-01T15:06:37.848Z,1.10
2022-09-01T15:09:17.224Z,1.23
2022-09-01T15:11:56.458Z,1.20
2022-09-01T15:14:31.070Z,1.30
2022-09-01T15:17:01.104Z,1.10
2022-09-01T15:19:36.043Z,1.23
2022-09-01T15:22:05.026Z,1.30
2022-09-01T15:24:40.066Z,1.20
2022-09-01T15:27:11.783Z,1.27
2022-09-01T15:29:51.193Z,1.40
2022-09-01T15:32:27.983Z,1.42
2022-09-01T15:35:04.499Z,1.13
2022-09-01T15:37:33.025Z,1.30
2022-09-01T15:40:08.074Z,1.00
2022-09-01T15:42:39.357Z,1.10
2022-09-01T15:45:18.451Z,1.13
2022-09-01T15:47:48.475Z,1.10
2022-09-01T15:50:27.706Z,1.27
2022-09-01T15:53:06.758Z,1.33
2022-09-01T15:55:48.057Z,1.50
2022-09-01T15:58:34.315Z,1.35
2022-09-01T16:01:13.807Z,1.00
2022-09-01T16:03:49.176Z,1.10
2022-09-01T16:06:18.832Z,1.17
2022-09-01T16:09:01.236Z,1.30
2022-09-01T16:11:37.107Z,1.20
2022-09-01T16:14:14.219Z,1.30
2022-09-01T16:16:52.074Z,1.20
2022-09-01T16:19:38.419Z,1.25
2022-09-01T16:22:14.792Z,1.20
2022-09-01T16:24:53.494Z,1.30
2022-09-01T16:27:31.996Z,1.10
2022-09-01T16:30:15.105Z,1.20
2022-09-01T16:32:52.790Z,1.13
2022-09-01T16:35:33.209Z,1.13
2022-09-01T16:38:16.785Z,1.20
2022-09-01T16:41:00.265Z,1.30
2022-09-01T16:43:37.442Z,1.20
2022-09-01T16:46:20.602Z,1.23
2022-09-01T16:48:57.673Z,1.40
2022-09-01T16:51:38.182Z,1.40
2022-09-01T16:54:21.138Z,1.33
2022-09-01T16:57:03.237Z,1.40
2022-09-01T16:59:44.314Z,1.50
2022-09-01T17:02:36.322Z,1.53
2022-09-01T17:05:14.274Z,1.30
2022-09-01T17:07:58.492Z,1.30
2022-09-01T17:10:53.349Z,1.30
2022-09-01T17:13:35.143Z,1.30
2022-09-01T17:16:08.357Z,1.20
2022-09-01T17:18:47.159Z,1.30
2022-09-01T17:21:20.622Z,1.30
2022-09-01T17:24:03.197Z,1.33
2022-09-01T17:26:32.513Z,1.50
2022-09-01T17:29:13.565Z,1.60
2022-09-01T17:32:05.482Z,1.37
2022-09-01T17:34:53.502Z,1.47
2022-09-01T17:37:33.107Z,1.20
2022-09-01T17:40:20.726Z,1.30
2022-09-01T17:42:55.470Z,1.17
2022-09-01T17:45:35.200Z,1.50
2022-09-01T17:48:15.400Z,1.50
2022-09-01T17:51:04.724Z,1.37
2022-09-01T17:53:42.625Z,1.10
2022-09-01T17:56:29.281Z,1.37
2022-09-01T17:59:06.318Z,1.30
2022-09-01T18:01:50.227Z,1.40
2022-09-01T18:05:06.378Z,1.37
2022-09-01T18:07:50.639Z,1.33
2022-09-01T18:10:37.313Z,1.43
2022-09-01T18:13:11.541Z,1.30
2022-09-01T18:15:58.549Z,1.50
2022-09-01T18:18:43.763Z,1.50
2022-09-01T18:21:23.253Z,1.50
2022-09-01T18:23:59.486Z,1.40
2022-09-01T18:26:40.207Z,1.23
2022-09-01T18:29:09.046Z,1.27
2022-09-01T18:32:09.337Z,1.43
2022-09-01T18:35:11.876Z,1.33
2022-09-01T18:37:57.586Z,1.40
2022-09-01T18:40:31.407Z,1.30
2022-09-01T18:43:14.347Z,1.37
2022-09-01T18:45:49.367Z,1.53
2022-09-01T18:51:14.743Z,1.60
2022-09-01T18:53:54.210Z,1.73
2022-09-01T18:56:37.651Z,1.67
2022-09-01T18:59:36.627Z,1.50
2022-09-01T19:02:18.430Z,1.70
2022-09-01T19:04:55.366Z,1.50
2022-09-01T19:07:34.560Z,1.57
2022-09-01T19:10:19.427Z,1.57
2022-09-01T19:13:04.277Z,1.40
2022-09-01T19:15:45.534Z,1.33
2022-09-01T19:18:27.671Z,1.40
2022-09-01T19:21:05.303Z,1.40
2022-09-01T19:23:43.420Z,1.57
2022-09-01T19:26:25.572Z,1.60
2022-09-01T19:28:59.281Z,1.40
2022-09-01T19:31:38.433Z,1.70
2022-09-01T19:34:12.375Z,1.70
2022-09-01T19:36:50.284Z,1.40
2022-09-01T19:39:21.458Z,1.50
2022-09-01T19:42:03.853Z,1.20
2022-09-01T19:44:42.240Z,1.57
2022-09-01T19:47:24.476Z,1.67
2022-09-01T19:50:01.317Z,1.57
2022-09-01T19:52:41.287Z,1.70
2022-09-01T19:55:14.709Z,1.77
2022-09-01T19:57:57.880Z,1.77
2022-09-01T20:00:33.025Z,1.60
2022-09-01T20:03:14.525Z,1.73
2022-09-01T20:05:46.631Z,2.00
2022-09-01T20:08:26.271Z,1.90
2022-09-01T20:11:06.452Z,2.23
2022-09-01T20:14:09.284Z,2.23
2022-09-01T20:16:41.746Z,1.60
2022-09-01T20:19:23.307Z,1.53
2022-09-01T20:21:51.565Z,1.53
2022-09-01T20:24:36.285Z,1.60
2022-09-01T20:27:22.189Z,1.90
2022-09-01T20:30:04.488Z,1.77
2022-09-01T20:32:42.361Z,2.00
2022-09-01T20:35:22.322Z,1.80
2022-09-01T20:37:57.461Z,1.77
2022-09-01T20:40:37.378Z,1.63
2022-09-01T20:43:16.193Z,1.80
2022-09-01T20:45:52.360Z,1.53
2022-09-01T20:48:25.337Z,1.60
2022-09-01T20:51:06.287Z,1.77
2022-09-01T20:53:52.562Z,1.50
2022-09-01T20:56:36.294Z,1.67
2022-09-01T20:59:10.865Z,1.60
2022-09-01T21:01:53.385Z,1.80
2022-09-01T21:04:42.535Z,1.80
2022-09-01T21:07:22.320Z,1.63
2022-09-01T21:10:19.248Z,1.60
2022-09-01T21:12:59.329Z,1.60
2022-09-01T21:15:34.994Z,1.53
2022-09-01T21:18:27.347Z,1.63
2022-09-01T21:21:04.329Z,1.83
2022-09-01T21:23:39.387Z,1.90
2022-09-01T21:26:07.739Z,1.40
2022-09-01T21:28:47.640Z,1.60
2022-09-01T21:31:16.755Z,1.47
2022-09-01T21:33:51.397Z,1.60
2022-09-01T21:36:20.960Z,1.80
2022-09-01T21:38:55.341Z,1.87
2022-09-01T21:41:23.403Z,1.53
2022-09-01T21:43:58.342Z,1.80
2022-09-01T21:46:27.194Z,1.80
2022-09-01T21:49:02.336Z,1.67
2022-09-01T21:51:31.875Z,1.80
2022-09-01T21:54:06.343Z,1.70
2022-09-01T21:56:36.512Z,1.90
2022-09-01T21:59:11.366Z,1.70
2022-09-01T22:01:39.993Z,1.70
2022-09-01T22:07:53.199Z,1.60
2022-09-01T22:10:30.430Z,1.70
2022-09-01T22:13:08.339Z,1.50
2022-09-01T22:15:48.349Z,1.50
2022-09-01T22:18:18.468Z,1.63
2022-09-01T22:20:53.371Z,1.80
2022-09-01T22:23:23.061Z,1.60
2022-09-01T22:25:57.398Z,1.50
2022-09-01T22:28:25.550Z,1.60
2022-09-01T22:31:00.528Z,1.50
2022-09-01T22:33:29.360Z,1.67
2022-09-01T22:36:05.416Z,1.67
2022-09-01T22:38:36.854Z,1.60
2022-09-01T22:41:11.414Z,1.43
2022-09-01T22:43:39.554Z,1.60
2022-09-01T22:46:14.437Z,1.50
2022-09-01T22:48:45.445Z,1.60
2022-09-01T22:51:21.468Z,1.80
2022-09-01T22:53:52.628Z,1.60
2022-09-01T22:56:30.428Z,1.30
2022-09-01T22:59:02.807Z,1.43
2022-09-01T23:01:41.392Z,1.40
2022-09-01T23:04:11.600Z,1.40
2022-09-01T23:06:48.458Z,1.50
2022-09-01T23:09:32.421Z,1.40
2022-09-01T23:12:07.850Z,1.50
2022-09-01T23:14:42.458Z,1.50
2022-09-01T23:17:10.568Z,1.60
2022-09-01T23:19:45.438Z,1.40
2022-09-01T23:22:13.673Z,1.43
2022-09-01T23:25:00.481Z,1.60
2022-09-01T23:27:28.865Z,1.53
2022-09-01T23:30:03.501Z,1.20
2022-09-01T23:32:31.600Z,1.50
2022-09-01T23:35:07.681Z,1.40
2022-09-01T23:37:36.010Z,1.83
2022-09-01T23:40:14.518Z,1.77
2022-09-01T23:42:42.713Z,1.53
2022-09-01T23:45:18.495Z,1.47
2022-09-01T23:47:46.649Z,1.50
2022-09-01T23:50:21.471Z,1.50
2022-09-01T23:52:50.541Z,1.70
2022-09-01T23:55:28.512Z,1.67
2022-09-01T23:57:56.644Z,1.70
